Time;durP1;ratioP1;P1;durP2;ratioP2;P2;SDS_P1;SDS_P2;PMS_P1;PMS_P2;Temp;Humidity;BMP_temperature;BMP_pressure;BME280_temperature;BME280_humidity;BME280_pressure;Samples;Min_cycle;Max_cycle;Signal;HPM_P1;HPM_P2
2022/07/22 00:01:52;;;;;;;8.07;6.97;;;21.70;99.90;;;;;;4986399;28;20022;-79
2022/07/22 00:04:18;;;;;;;9.33;7.10;;;21.60;99.90;;;;;;5002129;28;20050;-80
2022/07/22 00:06:44;;;;;;;13.00;7.90;;;21.60;99.90;;;;;;5018611;28;20352;-80
2022/07/22 00:09:10;;;;;;;9.97;7.20;;;21.60;99.90;;;;;;5018250;28;20057;-79
2022/07/22 00:11:36;;;;;;;10.47;6.93;;;21.60;99.90;;;;;;5002408;28;20053;-79
2022/07/22 00:14:01;;;;;;;9.80;7.07;;;21.50;99.90;;;;;;5001909;28;20112;-79
2022/07/22 00:16:27;;;;;;;11.70;7.97;;;21.50;99.90;;;;;;5016417;28;20034;-79
2022/07/22 00:18:53;;;;;;;10.93;7.57;;;21.50;99.90;;;;;;4966653;28;20034;-79
2022/07/22 00:21:19;;;;;;;9.80;7.07;;;21.50;99.90;;;;;;4966607;28;20229;-79
2022/07/22 00:23:45;;;;;;;9.63;7.60;;;21.40;99.90;;;;;;4990628;28;20026;-79
2022/07/22 00:26:10;;;;;;;9.47;7.77;;;21.40;99.90;;;;;;5003741;28;20167;-80
2022/07/22 00:28:36;;;;;;;11.93;7.93;;;21.40;99.90;;;;;;4987273;28;20034;-79
2022/07/22 00:31:02;;;;;;;7.80;6.90;;;21.30;99.90;;;;;;5020249;28;20205;-79
2022/07/22 00:33:28;;;;;;;10.03;7.37;;;21.30;99.90;;;;;;5019798;28;20042;-79
2022/07/22 00:35:54;;;;;;;10.63;8.27;;;21.20;99.90;;;;;;5020792;28;20310;-79
2022/07/22 00:38:19;;;;;;;11.33;8.57;;;21.20;99.90;;;;;;4989804;28;20034;-80
2022/07/22 00:40:45;;;;;;;10.03;7.90;;;21.20;99.90;;;;;;5021418;28;20042;-79
2022/07/22 00:43:11;;;;;;;10.83;8.50;;;21.10;99.90;;;;;;5003538;28;20042;-80
2022/07/22 00:45:37;;;;;;;12.00;8.10;;;21.00;99.90;;;;;;4987197;28;20042;-79
2022/07/22 00:48:03;;;;;;;11.97;7.70;;;21.00;99.90;;;;;;5002283;28;20030;-79
2022/07/22 00:50:29;;;;;;;9.50;8.13;;;20.90;99.90;;;;;;5000568;28;20300;-79
2022/07/22 00:52:55;;;;;;;10.15;7.80;;;20.90;99.90;;;;;;4985403;28;20022;-79
2022/07/22 00:55:20;;;;;;;10.17;7.97;;;20.80;99.90;;;;;;4985187;28;20080;-79
2022/07/22 00:57:46;;;;;;;9.27;8.03;;;20.70;99.90;;;;;;4969043;28;20057;-79
2022/07/22 01:00:16;;;;;;;8.90;8.00;;;20.70;99.90;;;;;;5001564;28;20125;-79
2022/07/22 01:02:41;;;;;;;11.02;9.05;;;20.70;99.90;;;;;;4984467;28;20081;-80
2022/07/22 01:05:07;;;;;;;9.93;8.87;;;20.60;99.90;;;;;;5001389;28;20030;-78
2022/07/22 01:07:33;;;;;;;11.02;8.23;;;20.60;99.90;;;;;;5000302;28;20391;-79
2022/07/22 01:09:59;;;;;;;13.30;8.23;;;20.60;99.90;;;;;;5001274;28;20032;-79
2022/07/22 01:12:25;;;;;;;15.93;8.90;;;20.60;99.90;;;;;;4985142;28;20038;-79
2022/07/22 01:14:50;;;;;;;13.10;9.13;;;20.50;99.90;;;;;;5017145;28;20042;-80
2022/07/22 01:17:16;;;;;;;12.93;9.57;;;20.50;99.90;;;;;;5017526;28;20026;-80
2022/07/22 01:19:42;;;;;;;10.52;8.93;;;20.50;99.90;;;;;;5000917;28;20057;-80
2022/07/22 01:22:08;;;;;;;9.57;8.03;;;20.50;99.90;;;;;;4984936;28;20034;-80
2022/07/22 01:24:34;;;;;;;10.50;8.93;;;20.40;99.90;;;;;;5000756;28;20221;-79
2022/07/22 01:27:00;;;;;;;10.35;8.70;;;20.40;99.90;;;;;;5000867;28;20038;-79
2022/07/22 01:29:26;;;;;;;10.77;8.93;;;20.30;99.90;;;;;;5017003;28;20062;-79
2022/07/22 01:31:52;;;;;;;11.83;9.40;;;20.30;99.90;;;;;;5000657;28;20378;-79
2022/07/22 01:34:17;;;;;;;10.13;9.13;;;20.30;99.90;;;;;;5000284;28;20273;-79
2022/07/22 01:36:43;;;;;;;10.83;8.63;;;20.30;99.90;;;;;;5000681;28;20022;-79
2022/07/22 01:39:09;;;;;;;12.97;9.80;;;20.20;99.90;;;;;;5000176;28;20036;-79
2022/07/22 01:41:35;;;;;;;11.07;9.80;;;20.20;99.90;;;;;;5000307;28;20030;-80
2022/07/22 01:44:00;;;;;;;13.63;9.13;;;20.20;99.90;;;;;;4999363;28;20038;-80
2022/07/22 01:46:26;;;;;;;11.37;8.47;;;20.20;99.90;;;;;;5001724;28;20351;-79
2022/07/22 01:48:52;;;;;;;12.60;9.30;;;20.10;99.90;;;;;;5016922;28;20030;-79
2022/07/22 01:51:19;;;;;;;11.67;8.50;;;20.10;99.90;;;;;;5016710;28;20081;-79
2022/07/22 01:53:45;;;;;;;11.32;7.88;;;20.10;99.90;;;;;;5000270;28;20429;-80
2022/07/22 01:56:10;;;;;;;13.80;9.40;;;20.10;99.90;;;;;;4984250;28;20033;-79
2022/07/22 01:58:37;;;;;;;11.33;9.30;;;20.10;99.90;;;;;;5000585;28;20253;-79
2022/07/22 02:01:03;;;;;;;12.20;8.55;;;20.10;99.90;;;;;;4985583;28;20055;-79
2022/07/22 02:03:28;;;;;;;11.68;9.25;;;20.10;99.90;;;;;;4984173;28;20029;-79
2022/07/22 02:05:55;;;;;;;11.60;8.57;;;20.10;99.90;;;;;;5001606;28;20228;-79
2022/07/22 02:08:21;;;;;;;8.30;7.43;;;20.10;99.90;;;;;;5017783;28;20022;-79
2022/07/22 02:10:47;;;;;;;12.45;8.77;;;20.10;99.90;;;;;;5001456;28;20278;-79
2022/07/22 02:13:13;;;;;;;11.37;8.80;;;20.10;99.90;;;;;;5003169;28;20022;-79
2022/07/22 02:15:39;;;;;;;12.07;8.90;;;20.10;99.90;;;;;;5005440;28;20022;-79
2022/07/22 02:18:17;;;;;;;11.10;8.53;;;20.00;99.90;;;;;;5005574;28;20068;-79
2022/07/22 02:20:43;;;;;;;12.82;8.43;;;20.10;99.90;;;;;;5021897;28;20026;-79
2022/07/22 02:23:11;;;;;;;12.13;8.90;;;20.00;99.90;;;;;;4988949;28;20022;-79
2022/07/22 02:25:36;;;;;;;14.15;8.43;;;20.00;99.90;;;;;;5020201;28;20316;-79
2022/07/22 02:28:02;;;;;;;12.50;8.93;;;20.00;99.90;;;;;;5005492;28;20096;-79
2022/07/22 02:30:28;;;;;;;13.63;9.20;;;20.00;99.90;;;;;;5005253;28;20029;-79
2022/07/22 02:32:54;;;;;;;13.80;9.93;;;20.00;99.90;;;;;;5005109;28;20030;-79
2022/07/22 02:35:20;;;;;;;14.07;9.37;;;20.10;99.90;;;;;;5005197;28;20033;-79
2022/07/22 02:37:46;;;;;;;12.77;9.30;;;20.00;99.90;;;;;;5021611;28;20026;-80
2022/07/22 02:40:11;;;;;;;11.93;9.23;;;20.00;99.90;;;;;;4988569;28;20101;-79
2022/07/22 02:42:37;;;;;;;12.07;9.13;;;20.00;99.90;;;;;;5005165;28;20049;-78
2022/07/22 02:45:03;;;;;;;12.03;9.23;;;19.90;99.90;;;;;;5005019;28;20033;-79
2022/07/22 02:47:29;;;;;;;13.18;9.77;;;19.90;99.90;;;;;;4988800;28;20046;-79
2022/07/22 02:49:55;;;;;;;11.87;8.80;;;19.80;99.90;;;;;;5006147;28;20030;-79
2022/07/22 02:52:21;;;;;;;13.47;9.67;;;19.80;99.90;;;;;;4987499;28;20197;-79
2022/07/22 02:54:47;;;;;;;13.07;8.07;;;19.70;99.90;;;;;;5020945;28;20457;-79
2022/07/22 02:57:12;;;;;;;11.03;9.17;;;19.70;99.90;;;;;;5003794;28;20014;-79
2022/07/22 02:59:38;;;;;;;12.17;8.87;;;19.70;99.90;;;;;;5004809;28;20028;-79
2022/07/22 03:02:04;;;;;;;11.37;9.47;;;19.60;99.90;;;;;;5021085;28;20388;-79
2022/07/22 03:04:30;;;;;;;16.97;9.80;;;19.60;99.90;;;;;;5019808;28;20093;-79
2022/07/22 03:06:55;;;;;;;15.37;9.43;;;19.60;99.90;;;;;;5020712;28;20029;-79
2022/07/22 03:09:21;;;;;;;11.00;8.87;;;19.50;99.90;;;;;;5005625;28;20026;-79
2022/07/22 03:11:47;;;;;;;10.13;8.50;;;19.50;99.90;;;;;;5003529;28;20083;-79
2022/07/22 03:14:13;;;;;;;13.13;9.17;;;19.50;99.90;;;;;;5020427;28;20018;-79
2022/07/22 03:16:39;;;;;;;14.18;10.55;;;19.40;99.90;;;;;;4987926;28;20228;-79
2022/07/22 03:19:05;;;;;;;15.50;9.60;;;19.30;99.90;;;;;;5004426;28;20030;-79
2022/07/22 03:21:31;;;;;;;13.00;10.10;;;19.30;99.90;;;;;;5004386;28;20026;-79
2022/07/22 03:23:57;;;;;;;11.03;9.03;;;19.20;99.90;;;;;;5003590;28;20089;-80
2022/07/22 03:26:23;;;;;;;10.30;9.20;;;19.20;99.90;;;;;;5002797;28;20026;-79
2022/07/22 03:28:49;;;;;;;12.85;9.27;;;19.20;99.90;;;;;;5004285;28;20022;-79
2022/07/22 03:31:15;;;;;;;12.05;9.18;;;19.10;99.90;;;;;;5004056;28;20030;-79
2022/07/22 03:33:41;;;;;;;12.63;9.90;;;19.10;99.90;;;;;;5020339;28;20073;-80
2022/07/22 03:36:07;;;;;;;11.13;9.23;;;19.10;99.90;;;;;;5020492;28;20030;-79
2022/07/22 03:38:34;;;;;;;11.33;9.63;;;19.00;99.90;;;;;;4987916;28;20076;-79
2022/07/22 03:41:00;;;;;;;13.95;10.23;;;19.00;99.90;;;;;;5003754;28;20205;-78
2022/07/22 03:43:26;;;;;;;13.77;9.98;;;19.00;99.90;;;;;;5003834;28;20346;-77
2022/07/22 03:45:52;;;;;;;11.27;8.60;;;18.90;99.90;;;;;;5020266;28;20038;-77
2022/07/22 03:48:18;;;;;;;14.10;10.77;;;19.00;99.90;;;;;;5005181;28;20325;-77
2022/07/22 03:50:44;;;;;;;13.37;9.53;;;18.90;99.90;;;;;;5005034;28;20022;-77
2022/07/22 03:53:09;;;;;;;13.07;9.87;;;18.90;99.90;;;;;;5020455;28;20019;-77
2022/07/22 03:55:35;;;;;;;13.70;10.00;;;18.90;99.90;;;;;;5003647;28;20022;-77
2022/07/22 03:58:01;;;;;;;13.90;10.00;;;18.80;99.90;;;;;;5003789;28;20022;-77
2022/07/22 04:00:27;;;;;;;11.80;9.27;;;18.80;99.90;;;;;;5003757;28;20030;-77
2022/07/22 04:02:52;;;;;;;12.10;8.83;;;18.80;99.90;;;;;;5020093;28;20336;-77
2022/07/22 04:05:18;;;;;;;14.83;10.07;;;18.70;99.90;;;;;;4987754;28;20024;-77
2022/07/22 04:07:44;;;;;;;15.07;10.17;;;18.70;99.90;;;;;;5003904;28;20023;-77
2022/07/22 04:10:10;;;;;;;14.00;10.10;;;18.70;99.90;;;;;;4987863;28;20379;-77
2022/07/22 04:12:37;;;;;;;14.27;9.93;;;18.70;99.90;;;;;;4987850;28;20028;-78
2022/07/22 04:15:04;;;;;;;11.63;9.65;;;18.70;99.90;;;;;;5004219;28;20018;-76
2022/07/22 04:17:30;;;;;;;13.95;9.77;;;18.70;99.90;;;;;;5004558;28;20061;-78
2022/07/22 04:19:56;;;;;;;11.67;9.50;;;18.70;99.90;;;;;;5003987;28;20345;-78
2022/07/22 04:22:23;;;;;;;14.77;9.88;;;18.70;99.90;;;;;;5003921;28;20332;-78
2022/07/22 04:24:48;;;;;;;12.23;9.00;;;18.70;99.90;;;;;;5020870;28;20202;-81
2022/07/22 04:27:14;;;;;;;11.83;9.53;;;18.70;99.90;;;;;;5025097;28;20069;-80
2022/07/22 04:29:40;;;;;;;12.43;9.47;;;18.70;99.90;;;;;;5007916;28;20026;-80
2022/07/22 04:32:06;;;;;;;15.03;10.77;;;18.70;99.90;;;;;;5004004;28;20316;-79
2022/07/22 04:34:31;;;;;;;16.20;9.43;;;18.80;99.90;;;;;;5004591;28;20037;-79
2022/07/22 04:36:57;;;;;;;12.93;9.67;;;18.80;99.90;;;;;;5021000;28;20316;-79
2022/07/22 04:39:23;;;;;;;13.73;10.35;;;18.80;99.90;;;;;;5007102;28;20087;-79
2022/07/22 04:41:49;;;;;;;14.87;9.70;;;18.90;99.90;;;;;;5004480;28;20038;-75
2022/07/22 04:44:15;;;;;;;12.77;10.13;;;19.00;99.90;;;;;;5004513;28;20333;-77
2022/07/22 04:46:40;;;;;;;17.83;10.37;;;19.00;99.90;;;;;;5006195;28;20026;-78
2022/07/22 04:49:06;;;;;;;14.03;10.27;;;19.00;99.90;;;;;;5004660;28;20034;-78
2022/07/22 04:51:32;;;;;;;12.57;9.90;;;19.10;99.90;;;;;;5003849;28;20038;-78
2022/07/22 04:53:58;;;;;;;13.97;10.30;;;19.10;99.90;;;;;;5019065;28;20347;-78
2022/07/22 04:56:23;;;;;;;13.37;9.43;;;19.20;99.90;;;;;;5002849;28;20121;-77
2022/07/22 04:58:50;;;;;;;14.30;11.00;;;19.20;99.90;;;;;;5001596;28;20025;-77
2022/07/22 05:01:16;;;;;;;;;;;19.30;99.90;;;;;;5019142;28;20030;-77
2022/07/22 05:03:42;;;;;;;13.00;10.27;;;19.30;99.90;;;;;;5003206;28;20268;-77
2022/07/22 05:06:08;;;;;;;17.87;11.37;;;19.40;99.90;;;;;;5002746;28;20053;-77
2022/07/22 05:08:34;;;;;;;15.18;10.98;;;19.50;99.90;;;;;;5002374;28;20042;-77
2022/07/22 05:10:59;;;;;;;15.33;10.53;;;19.50;99.90;;;;;;5002321;28;20030;-77
2022/07/22 05:13:25;;;;;;;18.60;11.90;;;19.60;99.90;;;;;;5001038;28;20018;-78
2022/07/22 05:15:51;;;;;;;14.17;10.10;;;19.60;99.90;;;;;;5002434;28;20521;-78
2022/07/22 05:18:17;;;;;;;15.73;10.77;;;19.70;99.90;;;;;;5003528;28;20534;-77
2022/07/22 05:20:43;;;;;;;16.83;11.10;;;19.80;99.90;;;;;;5001453;28;20321;-77
2022/07/22 05:23:09;;;;;;;14.88;10.48;;;19.90;99.90;;;;;;5002005;28;20046;-78
2022/07/22 05:25:34;;;;;;;12.63;10.70;;;19.90;99.90;;;;;;5001019;28;20080;-79
2022/07/22 05:28:00;;;;;;;15.00;11.73;;;20.00;99.90;;;;;;4983585;28;20065;-78
2022/07/22 05:30:26;;;;;;;18.07;10.67;;;20.10;99.90;;;;;;4983818;28;20051;-79
2022/07/22 05:32:52;;;;;;;16.47;12.53;;;20.10;99.90;;;;;;4988580;28;20034;-74
2022/07/22 05:35:18;;;;;;;16.33;12.15;;;20.10;99.90;;;;;;4985430;28;20067;-77
2022/07/22 05:37:45;;;;;;;16.95;11.93;;;20.10;99.90;;;;;;4989743;28;20031;-77
2022/07/22 05:40:11;;;;;;;15.15;11.00;;;20.10;99.90;;;;;;4981882;28;20019;-76
2022/07/22 05:42:37;;;;;;;16.10;10.55;;;20.10;99.90;;;;;;4982946;28;20043;-76
2022/07/22 05:45:03;;;;;;;15.83;10.40;;;20.20;99.90;;;;;;4982813;28;20166;-76
2022/07/22 05:47:29;;;;;;;14.98;10.77;;;20.30;99.90;;;;;;4981926;28;20030;-77
2022/07/22 05:49:56;;;;;;;15.85;10.82;;;20.30;99.90;;;;;;4992541;28;20073;-78
2022/07/22 05:52:22;;;;;;;16.93;11.17;;;20.40;99.90;;;;;;5001561;28;20082;-77
2022/07/22 05:54:48;;;;;;;13.13;9.50;;;20.40;99.90;;;;;;5001248;28;20029;-77
2022/07/22 05:57:13;;;;;;;13.47;9.97;;;20.40;99.90;;;;;;5016973;28;20221;-77
2022/07/22 05:59:40;;;;;;;17.67;11.27;;;20.50;99.90;;;;;;5001545;28;20033;-77
2022/07/22 06:02:06;;;;;;;;;;;20.50;99.90;;;;;;5001638;28;20329;-76
2022/07/22 06:04:32;;;;;;;14.10;10.20;;;20.60;99.90;;;;;;5002318;28;19920;-77
2022/07/22 06:06:57;;;;;;;14.10;10.00;;;20.60;99.90;;;;;;4985057;28;20029;-77
2022/07/22 06:09:23;;;;;;;12.77;10.37;;;20.70;99.90;;;;;;5002415;28;20022;-77
2022/07/22 06:11:49;;;;;;;13.60;10.30;;;20.70;99.90;;;;;;5002353;28;20029;-76
2022/07/22 06:14:15;;;;;;;14.50;11.60;;;20.70;99.90;;;;;;5002166;28;20030;-77
2022/07/22 06:16:40;;;;;;;15.00;11.33;;;20.70;99.90;;;;;;5001495;28;20313;-76
2022/07/22 06:19:06;;;;;;;12.13;8.80;;;20.80;99.90;;;;;;5002293;28;20371;-76
2022/07/22 06:21:32;;;;;;;14.50;9.80;;;20.80;99.90;;;;;;5001574;28;20224;-77
2022/07/22 06:23:58;;;;;;;16.33;9.80;;;20.90;99.90;;;;;;5017311;28;20022;-77
2022/07/22 06:26:23;;;;;;;11.63;8.73;;;20.90;99.90;;;;;;5017678;28;20025;-77
2022/07/22 06:28:49;;;;;;;13.07;9.17;;;20.90;99.90;;;;;;4984957;28;20040;-78
2022/07/22 06:31:16;;;;;;;13.33;8.27;;;21.00;99.90;;;;;;4996415;28;20322;-78
2022/07/22 06:33:42;;;;;;;;;;;21.10;99.90;;;;;;4977782;28;20037;-81
2022/07/22 06:36:08;;;;;;;10.05;7.88;;;21.10;99.90;;;;;;4966014;28;19971;-81
2022/07/22 06:38:34;;;;;;;12.25;9.27;;;21.10;99.90;;;;;;4966498;28;20069;-81
2022/07/22 06:40:59;;;;;;;14.10;10.40;;;21.10;99.90;;;;;;4982338;28;20022;-82
2022/07/22 06:43:28;;;;;;;15.33;10.27;;;21.20;99.90;;;;;;4981477;28;20019;-82
2022/07/22 06:45:54;;;;;;;9.68;8.65;;;21.20;99.90;;;;;;4982917;28;20019;-82
2022/07/22 06:48:19;;;;;;;12.70;9.20;;;21.30;99.90;;;;;;4982506;28;20254;-82
2022/07/22 06:50:45;;;;;;;10.07;7.67;;;21.30;99.90;;;;;;4983232;28;20300;-81
2022/07/22 06:53:11;;;;;;;11.57;8.77;;;21.40;99.90;;;;;;4984850;28;20022;-80
2022/07/22 06:55:37;;;;;;;11.80;8.77;;;21.40;99.90;;;;;;4989022;28;20058;-81
2022/07/22 06:58:02;;;;;;;11.93;8.00;;;21.40;99.90;;;;;;4973236;28;20046;-81
2022/07/22 07:00:28;;;;;;;9.93;8.73;;;21.50;99.90;;;;;;4991296;28;20027;-82
2022/07/22 07:02:58;;;;;;;13.60;8.47;;;21.50;99.90;;;;;;4993177;28;20269;-83
2022/07/22 07:05:24;;;;;;;11.55;9.02;;;21.60;99.90;;;;;;4995015;28;20376;-81
2022/07/22 07:07:50;;;;;;;12.75;8.57;;;21.60;99.90;;;;;;4976860;28;20019;-81
2022/07/22 07:10:16;;;;;;;11.07;9.13;;;21.70;99.90;;;;;;4992474;28;20488;-81
2022/07/22 07:12:42;;;;;;;12.83;10.17;;;21.70;99.90;;;;;;4990368;28;20039;-82
2022/07/22 07:15:08;;;;;;;10.80;9.13;;;21.80;99.90;;;;;;4976752;28;20023;-81
2022/07/22 07:17:34;;;;;;;12.13;8.75;;;21.80;99.90;;;;;;4990688;28;20053;-83
2022/07/22 07:20:00;;;;;;;11.90;8.70;;;21.80;99.90;;;;;;4992393;28;20046;-81
2022/07/22 07:22:26;;;;;;;12.13;8.30;;;21.90;99.90;;;;;;4993975;28;20066;-81
2022/07/22 07:24:51;;;;;;;11.00;8.60;;;21.90;99.90;;;;;;4981148;28;20240;-82
2022/07/22 07:27:17;;;;;;;12.27;9.60;;;22.00;99.90;;;;;;4980184;28;20033;-82
2022/07/22 07:29:43;;;;;;;14.17;9.27;;;22.00;99.90;;;;;;5012860;28;20133;-82
2022/07/22 07:32:09;;;;;;;9.77;8.13;;;22.10;99.90;;;;;;5012576;28;20028;-82
2022/07/22 07:34:35;;;;;;;9.33;8.17;;;22.20;99.90;;;;;;5027047;28;20018;-81
2022/07/22 07:37:00;;;;;;;13.98;9.65;;;22.20;99.90;;;;;;5028510;28;20093;-82
2022/07/22 07:39:26;;;;;;;12.23;9.17;;;22.30;99.90;;;;;;5009705;28;20101;-80
2022/07/22 07:41:52;;;;;;;9.93;8.20;;;22.40;99.90;;;;;;5024028;28;20029;-80
2022/07/22 07:44:19;;;;;;;13.00;8.65;;;22.40;99.90;;;;;;4991280;28;20033;-80
2022/07/22 07:46:44;;;;;;;10.15;8.27;;;22.50;99.90;;;;;;4985448;28;20082;-80
2022/07/22 07:49:10;;;;;;;11.93;8.97;;;22.50;99.90;;;;;;4987675;28;20046;-80
2022/07/22 07:51:36;;;;;;;12.47;9.13;;;22.40;99.90;;;;;;4969573;28;20278;-78
2022/07/22 07:54:02;;;;;;;10.63;8.30;;;22.40;99.90;;;;;;4985343;28;20027;-80
2022/07/22 07:56:28;;;;;;;13.98;8.05;;;22.40;99.90;;;;;;4999964;28;20273;-79
2022/07/22 07:58:53;;;;;;;11.37;9.17;;;22.40;99.90;;;;;;5021811;28;20058;-79
2022/07/22 08:01:19;;;;;;;9.90;8.13;;;22.50;99.90;;;;;;5023259;28;20045;-81
2022/07/22 08:03:45;;;;;;;11.17;9.27;;;22.60;99.90;;;;;;5006873;28;20335;-81
2022/07/22 08:06:11;;;;;;;10.97;8.87;;;22.70;99.90;;;;;;5007264;28;20333;-81
2022/07/22 08:08:37;;;;;;;11.13;8.53;;;22.70;99.90;;;;;;5007552;28;20038;-81
2022/07/22 08:11:02;;;;;;;13.53;8.73;;;22.80;99.90;;;;;;5021617;28;20312;-80
2022/07/22 08:13:28;;;;;;;12.50;9.20;;;22.80;99.90;;;;;;4999891;28;20089;-80
2022/07/22 08:15:54;;;;;;;14.60;9.00;;;22.90;99.90;;;;;;4985733;28;20026;-81
2022/07/22 08:18:21;;;;;;;11.38;8.05;;;22.90;99.90;;;;;;4969145;28;20058;-81
2022/07/22 08:20:46;;;;;;;9.95;8.18;;;23.00;99.90;;;;;;4953397;28;20444;-80
2022/07/22 08:23:12;;;;;;;10.10;8.50;;;23.00;99.90;;;;;;4968946;28;20042;-80
2022/07/22 08:25:38;;;;;;;9.87;7.97;;;23.10;99.90;;;;;;4985100;28;20027;-81
2022/07/22 08:28:04;;;;;;;10.97;8.17;;;23.20;99.90;;;;;;4985497;28;20300;-80
2022/07/22 08:30:30;;;;;;;12.00;8.93;;;23.30;99.90;;;;;;4985097;28;20023;-81
2022/07/22 08:32:56;;;;;;;13.15;8.82;;;23.30;99.90;;;;;;4952826;28;20030;-81
2022/07/22 08:35:22;;;;;;;12.57;8.93;;;23.40;99.90;;;;;;4980447;28;20034;-81
2022/07/22 08:37:52;;;;;;;12.80;9.13;;;23.40;99.90;;;;;;5001978;28;20026;-80
2022/07/22 08:40:18;;;;;;;10.23;7.80;;;23.50;99.90;;;;;;4965787;29;20271;-80
2022/07/22 08:42:45;;;;;;;11.38;7.93;;;23.50;99.90;;;;;;5000035;28;20031;-82
2022/07/22 08:45:11;;;;;;;14.27;10.38;;;23.60;99.90;;;;;;4986522;28;20098;-81
2022/07/22 08:47:37;;;;;;;13.38;9.23;;;23.50;99.90;;;;;;4968449;28;20045;-78
2022/07/22 08:50:04;;;;;;;10.25;7.82;;;23.50;99.90;;;;;;4983267;28;20101;-77
2022/07/22 08:52:30;;;;;;;12.32;7.82;;;23.60;99.90;;;;;;4983259;28;20167;-78
2022/07/22 08:54:55;;;;;;;10.73;8.10;;;23.70;99.90;;;;;;4982882;28;20326;-78
2022/07/22 08:57:22;;;;;;;10.13;8.05;;;23.70;99.90;;;;;;4984275;28;20061;-75
2022/07/22 08:59:57;;;;;;;12.35;8.40;;;23.80;99.90;;;;;;4984112;28;20030;-77
2022/07/22 09:02:23;;;;;;;14.30;8.27;;;23.90;99.90;;;;;;4984064;28;20030;-76
2022/07/22 09:05:00;;;;;;;9.95;8.20;;;24.00;99.90;;;;;;4990951;28;20049;-80
2022/07/22 09:07:37;;;;;;;11.77;8.68;;;24.00;99.90;;;;;;5019557;28;20030;-79
2022/07/22 09:10:16;;;;;;;13.38;9.07;;;24.00;99.90;;;;;;4986786;28;20097;-78
2022/07/22 09:13:01;;;;;;;10.63;7.85;;;24.10;99.90;;;;;;4987218;28;20081;-79
2022/07/22 09:15:36;;;;;;;11.13;8.02;;;24.10;99.90;;;;;;5019931;28;20034;-79
2022/07/22 09:18:02;;;;;;;9.63;7.47;;;24.20;99.90;;;;;;4987424;28;20053;-75
2022/07/22 09:20:28;;;;;;;12.95;8.07;;;24.20;99.90;;;;;;5018673;28;20250;-76
2022/07/22 09:22:54;;;;;;;12.10;8.02;;;24.30;99.90;;;;;;5002934;28;20041;-80
2022/07/22 09:25:35;;;;;;;9.63;8.18;;;24.50;99.90;;;;;;5020194;28;20018;-79
2022/07/22 09:28:06;;;;;;;10.95;7.78;;;24.50;99.90;;;;;;5003697;28;20030;-79
2022/07/22 09:30:41;;;;;;;9.52;8.25;;;24.60;99.90;;;;;;5020136;28;20253;-78
2022/07/22 09:33:07;;;;;;;11.30;7.95;;;24.60;99.90;;;;;;5003395;28;20026;-78
2022/07/22 09:35:33;;;;;;;11.73;8.50;;;24.60;99.90;;;;;;4986698;28;20068;-77
2022/07/22 09:38:05;;;;;;;11.75;7.47;;;24.80;99.90;;;;;;5019711;28;20268;-78
2022/07/22 09:40:36;;;;;;;8.68;7.35;;;24.80;99.90;;;;;;5023046;28;20228;-78
2022/07/22 09:43:14;;;;;;;11.00;7.68;;;24.90;99.90;;;;;;5007049;28;20037;-79
2022/07/22 09:45:53;;;;;;;8.50;7.60;;;24.90;99.90;;;;;;4992273;28;20018;-79
2022/07/22 09:48:21;;;;;;;10.73;7.90;;;25.00;99.90;;;;;;5022999;28;20340;-79
2022/07/22 09:50:47;;;;;;;9.45;7.95;;;25.00;99.90;;;;;;5006088;28;20093;-78
2022/07/22 09:53:14;;;;;;;;;;;25.10;98.40;;;;;;5004783;28;20049;-79
2022/07/22 09:55:40;;;;;;;11.02;7.15;;;25.10;98.50;;;;;;4989986;28;20192;-79
2022/07/22 09:58:07;;;;;;;13.02;8.10;;;25.20;97.90;;;;;;5021148;28;20022;-78
2022/07/22 10:00:34;;;;;;;9.52;8.18;;;25.30;98.70;;;;;;5006048;28;20049;-77
2022/07/22 10:03:03;;;;;;;10.38;7.85;;;25.40;97.80;;;;;;5005306;28;20049;-78
2022/07/22 10:05:32;;;;;;;9.95;7.43;;;25.50;99.90;;;;;;5006019;28;20026;-78
2022/07/22 10:07:59;;;;;;;12.05;7.68;;;25.50;93.80;;;;;;5021737;28;20368;-78
2022/07/22 10:10:28;;;;;;;12.48;7.57;;;25.60;92.20;;;;;;5004471;28;20045;-78
2022/07/22 10:12:56;;;;;;;9.30;7.32;;;25.60;93.10;;;;;;5005612;28;20031;-78
2022/07/22 10:15:22;;;;;;;9.93;7.28;;;25.60;92.70;;;;;;5007243;28;20034;-78
2022/07/22 10:17:53;;;;;;;7.53;6.70;;;25.60;91.90;;;;;;4991987;28;20094;-78
2022/07/22 10:20:21;;;;;;;9.27;6.78;;;25.70;92.10;;;;;;4988239;28;20018;-79
2022/07/22 10:22:55;;;;;;;8.07;6.85;;;25.70;92.90;;;;;;5003763;28;20093;-78
2022/07/22 10:25:24;;;;;;;8.77;7.25;;;25.80;93.20;;;;;;5004524;28;20033;-78
2022/07/22 10:28:04;;;;;;;8.50;6.40;;;25.90;91.10;;;;;;5003408;28;20018;-79
2022/07/22 10:30:35;;;;;;;9.15;6.95;;;25.90;90.70;;;;;;4987495;28;20090;-79
2022/07/22 10:33:07;;;;;;;10.82;7.60;;;26.00;86.50;;;;;;5017717;28;20022;-75
2022/07/22 10:35:35;;;;;;;11.77;7.93;;;26.10;85.50;;;;;;5019929;28;20046;-75
2022/07/22 10:38:04;;;;;;;7.18;6.32;;;26.30;88.10;;;;;;5019903;28;20030;-75
2022/07/22 10:40:45;;;;;;;10.70;7.20;;;26.40;86.60;;;;;;5021499;28;20022;-75
2022/07/22 10:43:12;;;;;;;9.70;5.88;;;26.50;86.00;;;;;;5004956;28;20605;-75
2022/07/22 10:45:45;;;;;;;;;;;26.60;82.30;;;;;;4989563;28;20360;-76
2022/07/22 10:48:18;;;;;;;7.70;6.47;;;26.70;84.40;;;;;;5006152;28;20255;-76
2022/07/22 10:51:04;;;;;;;12.13;7.28;;;26.90;85.20;;;;;;5020672;28;20033;-76
2022/07/22 10:53:54;;;;;;;8.90;6.38;;;26.90;90.60;;;;;;5019436;28;20103;-76
2022/07/22 10:56:35;;;;;;;7.53;6.32;;;27.10;91.60;;;;;;5005894;28;20018;-74
2022/07/22 10:59:10;;;;;;;9.80;6.40;;;27.20;93.40;;;;;;5005834;28;20053;-75
2022/07/22 11:01:42;;;;;;;9.00;6.88;;;27.20;92.90;;;;;;5021226;28;20018;-74
2022/07/22 11:04:18;;;;;;;9.02;7.40;;;27.30;94.20;;;;;;5005545;28;20403;-75
2022/07/22 11:06:51;;;;;;;9.77;7.22;;;27.30;93.30;;;;;;5005652;28;20026;-73
2022/07/22 11:09:20;;;;;;;10.38;7.55;;;27.40;93.10;;;;;;5005383;28;20045;-73
2022/07/22 11:11:52;;;;;;;7.85;6.43;;;27.40;93.70;;;;;;5005702;28;20026;-74
2022/07/22 11:14:30;;;;;;;9.07;6.35;;;27.50;93.30;;;;;;5019097;28;20159;-74
2022/07/22 11:17:04;;;;;;;9.50;6.80;;;27.60;94.70;;;;;;5004548;28;20018;-74
2022/07/22 11:19:32;;;;;;;8.15;6.07;;;27.70;96.60;;;;;;4988737;28;20014;-74
2022/07/22 11:22:17;;;;;;;10.15;7.03;;;27.90;95.10;;;;;;5004178;28;20038;-74
2022/07/22 11:24:48;;;;;;;7.45;6.10;;;28.00;95.70;;;;;;4987550;28;20038;-74
2022/07/22 11:27:16;;;;;;;11.52;7.15;;;28.20;89.00;;;;;;5004196;28;20048;-74
2022/07/22 11:29:44;;;;;;;10.60;6.85;;;28.30;77.60;;;;;;5003185;28;20022;-73
2022/07/22 11:32:11;;;;;;;14.68;7.40;;;28.50;72.20;;;;;;5005226;28;20027;-74
2022/07/22 11:34:38;;;;;;;;;;;28.60;70.70;;;;;;5004187;28;20030;-73
2022/07/22 11:37:04;;;;;;;;;;;28.70;68.40;;;;;;5004528;28;19929;-73
2022/07/22 11:39:30;;;;;;;10.55;5.95;;;28.80;68.90;;;;;;5003877;28;20082;-73
2022/07/22 11:41:59;;;;;;;10.30;6.70;;;29.00;69.80;;;;;;4971355;28;20018;-73
2022/07/22 11:44:29;;;;;;;10.32;6.75;;;29.10;70.30;;;;;;5005251;28;20068;-73
2022/07/22 11:46:58;;;;;;;11.20;6.55;;;29.20;69.00;;;;;;5020273;28;20033;-73
2022/07/22 11:49:26;;;;;;;11.73;6.93;;;29.40;66.60;;;;;;5020739;28;20081;-73
2022/07/22 11:51:52;;;;;;;9.60;6.28;;;29.60;66.80;;;;;;5004006;28;20030;-73
2022/07/22 11:54:18;;;;;;;9.98;6.72;;;29.70;68.70;;;;;;5020272;28;20266;-73
2022/07/22 11:56:43;;;;;;;9.63;6.50;;;29.70;63.30;;;;;;5019716;28;20093;-73
2022/07/22 11:59:13;;;;;;;7.85;6.40;;;29.80;64.50;;;;;;5005943;28;20030;-73
2022/07/22 12:01:40;;;;;;;9.50;6.22;;;29.80;62.00;;;;;;5004323;28;20038;-73
2022/07/22 12:04:11;;;;;;;7.35;6.40;;;29.80;62.90;;;;;;5003627;28;20029;-71
2022/07/22 12:06:39;;;;;;;16.05;7.68;;;29.90;65.40;;;;;;5019859;28;20225;-72
2022/07/22 12:09:09;;;;;;;10.40;6.60;;;30.00;62.50;;;;;;5003311;28;20018;-71
2022/07/22 12:11:37;;;;;;;9.52;6.70;;;30.20;74.70;;;;;;5004491;28;20026;-71
2022/07/22 12:14:09;;;;;;;10.68;6.85;;;30.30;67.30;;;;;;5004176;28;20026;-71
2022/07/22 12:16:35;;;;;;;8.23;6.07;;;30.60;68.50;;;;;;5004443;28;20026;-71
2022/07/22 12:19:08;;;;;;;;;;;30.80;64.70;;;;;;5019913;28;20022;-71
2022/07/22 12:21:49;;;;;;;6.47;5.75;;;31.00;63.30;;;;;;5004449;28;19944;-72
2022/07/22 12:24:15;;;;;;;9.77;6.30;;;31.20;64.60;;;;;;5018968;28;20073;-71
2022/07/22 12:26:48;;;;;;;6.90;6.20;;;31.00;68.90;;;;;;5002969;28;20026;-71
2022/07/22 12:29:30;;;;;;;9.25;6.45;;;31.40;70.10;;;;;;5004119;28;20069;-71
2022/07/22 12:32:02;;;;;;;7.43;5.75;;;31.60;72.00;;;;;;5004164;28;20033;-71
2022/07/22 12:34:39;;;;;;;6.78;5.85;;;31.70;74.90;;;;;;5018908;28;20029;-71
2022/07/22 12:37:42;;;;;;;8.45;5.82;;;31.70;73.60;;;;;;5019099;28;20100;-71
2022/07/22 12:40:26;;;;;;;8.70;6.55;;;31.80;77.80;;;;;;5001707;28;20034;-72
2022/07/22 12:43:08;;;;;;;7.28;5.93;;;32.00;78.70;;;;;;5003588;28;20037;-72